Time;durP1;ratioP1;P1;durP2;ratioP2;P2;SDS_P1;SDS_P2;PMS_P1;PMS_P2;Temp;Humidity;BMP_temperature;BMP_pressure;BME280_temperature;BME280_humidity;BME280_pressure;Samples;Min_cycle;Max_cycle;Signal;HPM_P1;HPM_P2
2021/03/25 00:01:35;;;;;;;14.57;9.27;;;4.10;99.90;;;;;;5143310;27;20262;-71
2021/03/25 00:04:21;;;;;;;13.93;10.20;;;4.20;99.90;;;;;;5139086;27;20480;-71
2021/03/25 00:07:07;;;;;;;15.73;9.53;;;4.20;99.90;;;;;;5139671;27;20462;-71
2021/03/25 00:09:52;;;;;;;14.80;9.43;;;4.50;99.90;;;;;;5145124;27;20409;-71
2021/03/25 00:12:38;;;;;;;25.77;10.20;;;4.50;99.90;;;;;;5140757;27;20604;-71
2021/03/25 00:15:23;;;;;;;22.60;10.33;;;4.70;99.90;;;;;;5141763;27;21213;-71
2021/03/25 00:18:09;;;;;;;17.30;10.65;;;4.60;99.90;;;;;;5135607;27;20583;-71
2021/03/25 00:20:54;;;;;;;17.10;10.30;;;4.50;99.90;;;;;;5140114;27;20226;-71
2021/03/25 00:23:39;;;;;;;16.45;10.10;;;4.50;99.90;;;;;;5138823;27;20197;-71
2021/03/25 00:26:25;;;;;;;13.43;9.50;;;4.60;99.90;;;;;;5139097;27;20229;-71
2021/03/25 00:29:12;;;;;;;12.80;9.50;;;4.50;99.90;;;;;;5141972;27;20477;-71
2021/03/25 00:31:57;;;;;;;22.03;9.97;;;4.40;99.90;;;;;;5141973;27;20789;-71
2021/03/25 00:34:42;;;;;;;17.60;10.80;;;4.40;99.90;;;;;;5137568;27;20457;-72
2021/03/25 00:37:27;;;;;;;20.25;10.70;;;4.20;99.90;;;;;;5143529;27;20455;-71
2021/03/25 00:40:13;;;;;;;12.48;9.65;;;4.20;99.90;;;;;;5136112;27;20233;-71
2021/03/25 00:42:59;;;;;;;14.67;10.77;;;4.40;99.90;;;;;;5144352;27;20223;-71
2021/03/25 00:45:47;;;;;;;13.53;9.63;;;4.40;99.90;;;;;;5135287;27;20790;-71
2021/03/25 00:48:32;;;;;;;17.08;10.25;;;4.40;99.90;;;;;;5139258;27;20532;-71
2021/03/25 00:51:18;;;;;;;16.40;10.77;;;4.40;99.90;;;;;;5141695;27;20221;-71
2021/03/25 00:54:04;;;;;;;16.47;10.40;;;4.50;99.90;;;;;;5140165;27;20496;-72
2021/03/25 00:56:49;;;;;;;16.20;10.80;;;4.50;99.90;;;;;;5142065;27;20450;-71
2021/03/25 00:59:34;;;;;;;18.10;10.25;;;4.30;99.90;;;;;;5147600;27;20638;-71
2021/03/25 01:02:20;;;;;;;19.70;10.90;;;4.10;99.90;;;;;;5141515;27;20716;-71
2021/03/25 01:05:06;;;;;;;21.70;10.55;;;4.00;99.90;;;;;;5144084;27;20196;-71
2021/03/25 01:07:51;;;;;;;25.93;10.53;;;3.90;99.90;;;;;;5142164;27;20194;-71
2021/03/25 01:10:38;;;;;;;19.80;11.33;;;3.90;99.90;;;;;;5137790;27;20987;-71
2021/03/25 01:13:31;;;;;;;19.43;12.20;;;3.70;99.90;;;;;;5140894;27;20879;-71
2021/03/25 01:16:22;;;;;;;15.07;11.00;;;3.70;99.90;;;;;;5143573;27;20477;-72
2021/03/25 01:19:11;;;;;;;16.07;10.30;;;3.70;99.90;;;;;;5136090;27;20249;-71
2021/03/25 01:21:57;;;;;;;15.73;10.53;;;3.70;99.90;;;;;;5148150;27;20437;-71
2021/03/25 01:24:43;;;;;;;16.27;11.00;;;3.80;99.90;;;;;;5142695;27;20463;-71
2021/03/25 01:27:28;;;;;;;14.93;10.23;;;3.70;99.90;;;;;;5145112;27;21213;-71
2021/03/25 01:30:15;;;;;;;17.35;11.35;;;3.70;99.90;;;;;;5143023;27;20480;-71
2021/03/25 01:33:01;;;;;;;17.57;12.00;;;3.70;99.90;;;;;;5143062;27;20201;-71
2021/03/25 01:35:47;;;;;;;15.93;12.00;;;3.60;99.90;;;;;;5143381;27;20439;-71
2021/03/25 01:38:32;;;;;;;17.60;11.37;;;3.60;99.90;;;;;;5147881;27;20273;-72
2021/03/25 01:41:18;;;;;;;15.15;11.10;;;3.70;99.90;;;;;;5144858;27;20475;-71
2021/03/25 01:44:04;;;;;;;19.77;12.80;;;3.80;99.90;;;;;;5143704;27;20223;-71
2021/03/25 01:46:49;;;;;;;21.92;13.00;;;3.80;99.90;;;;;;5144618;27;20216;-71
2021/03/25 01:49:34;;;;;;;16.50;10.70;;;3.90;99.90;;;;;;5140577;27;20202;-71
2021/03/25 01:52:44;;;;;;;14.98;11.60;;;4.10;99.90;;;;;;5145117;27;20236;-71
2021/03/25 01:55:45;;;;;;;15.67;10.97;;;4.20;99.90;;;;;;5144981;27;20209;-71
2021/03/25 01:58:50;;;;;;;16.77;11.50;;;4.30;99.90;;;;;;5142262;27;20476;-71
2021/03/25 02:01:42;;;;;;;20.65;11.68;;;4.20;99.90;;;;;;5138495;27;20488;-71
2021/03/25 02:04:44;;;;;;;15.73;10.00;;;4.30;99.90;;;;;;5146485;27;20213;-72
2021/03/25 02:07:42;;;;;;;18.95;12.25;;;4.30;99.90;;;;;;5145047;27;20414;-71
2021/03/25 02:10:36;;;;;;;19.50;11.48;;;4.10;99.90;;;;;;5141041;27;20214;-71
2021/03/25 02:13:31;;;;;;;17.67;12.18;;;3.90;99.90;;;;;;5141462;27;20299;-71
2021/03/25 02:16:21;;;;;;;18.67;12.23;;;3.80;99.90;;;;;;5142765;27;20237;-71
2021/03/25 02:19:22;;;;;;;17.48;12.02;;;3.60;99.90;;;;;;5144434;27;20217;-71
2021/03/25 02:22:28;;;;;;;19.23;12.07;;;3.70;99.90;;;;;;5145566;27;20216;-71
2021/03/25 02:25:17;;;;;;;23.83;12.53;;;3.70;99.90;;;;;;5132425;27;20488;-71
2021/03/25 02:28:13;;;;;;;18.95;12.30;;;3.70;99.90;;;;;;5138930;27;20488;-72
2021/03/25 02:31:11;;;;;;;19.40;12.40;;;3.60;99.90;;;;;;5139567;27;20595;-71
2021/03/25 02:34:02;;;;;;;16.75;12.07;;;3.60;99.90;;;;;;5142939;27;20949;-72
2021/03/25 02:36:52;;;;;;;15.77;10.48;;;3.50;99.90;;;;;;5144046;27;20554;-71
2021/03/25 02:39:44;;;;;;;21.33;13.27;;;3.40;99.90;;;;;;5140947;27;20271;-72
2021/03/25 02:42:37;;;;;;;16.83;12.43;;;3.30;99.90;;;;;;5148395;27;20459;-71
2021/03/25 02:45:27;;;;;;;19.85;12.35;;;3.10;99.90;;;;;;5148926;27;20834;-71
2021/03/25 02:48:20;;;;;;;18.90;11.70;;;3.10;99.90;;;;;;5147062;27;20570;-71
2021/03/25 02:51:10;;;;;;;16.53;12.20;;;3.20;99.90;;;;;;5141903;27;20222;-71
2021/03/25 02:53:56;;;;;;;23.77;12.90;;;3.20;99.90;;;;;;5141695;27;20997;-71
2021/03/25 02:56:45;;;;;;;18.15;12.75;;;3.40;99.90;;;;;;5137243;27;20414;-71
2021/03/25 02:59:34;;;;;;;22.15;12.23;;;3.50;99.90;;;;;;5138561;27;20229;-71
2021/03/25 03:02:26;;;;;;;16.55;12.00;;;3.50;99.90;;;;;;5141797;27;20263;-71
2021/03/25 03:05:17;;;;;;;14.23;11.32;;;3.70;99.90;;;;;;5144767;27;20202;-71
2021/03/25 03:08:11;;;;;;;16.08;10.63;;;3.80;99.90;;;;;;5141828;27;20285;-71
2021/03/25 03:11:00;;;;;;;20.73;12.30;;;3.90;99.90;;;;;;5135510;27;20300;-72
2021/03/25 03:13:49;;;;;;;18.63;11.77;;;3.90;99.90;;;;;;5138810;27;20717;-71
2021/03/25 03:16:40;;;;;;;20.10;11.77;;;3.80;99.90;;;;;;5138800;27;20214;-71
2021/03/25 03:19:30;;;;;;;16.73;11.15;;;3.90;99.90;;;;;;5142345;27;20260;-71
2021/03/25 03:22:16;;;;;;;18.85;12.30;;;3.80;99.90;;;;;;5141598;27;20221;-71
2021/03/25 03:25:04;;;;;;;20.50;11.38;;;3.90;99.90;;;;;;5139799;27;20209;-71
2021/03/25 03:27:56;;;;;;;19.25;11.85;;;3.60;99.90;;;;;;5140914;27;20221;-71
2021/03/25 03:30:46;;;;;;;18.08;12.02;;;3.50;99.90;;;;;;5141408;27;20742;-71
2021/03/25 03:33:34;;;;;;;18.30;11.63;;;3.40;99.90;;;;;;5138619;27;20201;-72
2021/03/25 03:36:22;;;;;;;20.58;11.70;;;3.20;99.90;;;;;;5145944;27;20529;-71
2021/03/25 03:39:12;;;;;;;15.97;10.57;;;3.40;99.90;;;;;;5144308;27;20294;-71
2021/03/25 03:42:01;;;;;;;16.87;12.57;;;3.30;99.90;;;;;;5145148;27;20557;-71
2021/03/25 03:44:53;;;;;;;17.00;11.68;;;3.20;99.90;;;;;;5142288;27;20450;-71
2021/03/25 03:47:40;;;;;;;18.00;11.60;;;3.10;99.90;;;;;;5140908;27;20285;-71
2021/03/25 03:50:29;;;;;;;14.82;11.93;;;3.10;99.90;;;;;;5140961;27;20233;-71
2021/03/25 03:53:15;;;;;;;16.90;12.20;;;2.80;99.90;;;;;;5143081;27;20729;-71
2021/03/25 03:56:11;;;;;;;21.00;13.52;;;2.90;99.90;;;;;;5135880;27;20193;-71
2021/03/25 03:58:59;;;;;;;27.50;12.18;;;3.00;99.90;;;;;;5143529;27;20221;-71
2021/03/25 04:01:52;;;;;;;18.05;12.80;;;3.10;99.90;;;;;;5145904;27;20225;-71
2021/03/25 04:04:42;;;;;;;18.58;10.98;;;3.00;99.90;;;;;;5145700;27;20293;-71
2021/03/25 04:07:31;;;;;;;17.10;11.43;;;3.00;99.90;;;;;;5145477;27;20213;-70
2021/03/25 04:10:20;;;;;;;16.60;12.45;;;3.00;99.90;;;;;;5140943;27;20229;-71
2021/03/25 04:13:10;;;;;;;17.17;9.45;;;3.10;99.90;;;;;;5142710;27;20282;-71
2021/03/25 04:15:56;;;;;;;20.33;11.73;;;3.20;99.90;;;;;;5148889;27;20682;-71
2021/03/25 04:18:46;;;;;;;20.88;11.60;;;3.30;99.90;;;;;;5143222;27;20210;-72
2021/03/25 04:21:34;;;;;;;18.53;11.20;;;3.40;99.90;;;;;;5138317;27;20337;-72
2021/03/25 04:24:23;;;;;;;17.17;11.00;;;3.30;99.90;;;;;;5142687;27;20489;-71
2021/03/25 04:27:12;;;;;;;18.30;11.10;;;3.20;99.90;;;;;;5144645;27;20450;-71
2021/03/25 04:30:04;;;;;;;20.15;11.57;;;3.20;99.90;;;;;;5137857;27;21028;-71
2021/03/25 04:32:51;;;;;;;22.07;12.37;;;3.20;99.90;;;;;;5142239;27;20197;-72
2021/03/25 04:35:36;;;;;;;17.52;11.10;;;3.10;99.90;;;;;;5146967;27;20479;-71
2021/03/25 04:38:23;;;;;;;22.27;10.30;;;3.10;99.90;;;;;;5144875;27;20264;-71
2021/03/25 04:41:09;;;;;;;16.65;10.73;;;3.10;99.90;;;;;;5145488;27;20225;-71
2021/03/25 04:43:59;;;;;;;21.08;11.93;;;3.10;99.90;;;;;;5138520;27;20205;-71
2021/03/25 04:46:55;;;;;;;19.20;10.67;;;3.10;99.90;;;;;;5143647;27;20205;-71
2021/03/25 04:49:44;;;;;;;21.38;12.20;;;3.10;99.90;;;;;;5145942;27;20436;-71
2021/03/25 04:52:31;;;;;;;15.07;9.70;;;3.00;99.90;;;;;;5143403;27;20282;-71
2021/03/25 04:55:20;;;;;;;15.30;10.85;;;2.90;99.90;;;;;;5146775;27;20273;-70
2021/03/25 04:58:08;;;;;;;19.00;10.65;;;2.80;99.90;;;;;;5141700;27;20193;-72
2021/03/25 05:00:53;;;;;;;17.67;10.55;;;2.70;99.90;;;;;;5146609;27;20703;-71
2021/03/25 05:03:40;;;;;;;17.48;10.25;;;2.70;99.90;;;;;;5146275;27;20208;-71
2021/03/25 05:06:29;;;;;;;17.20;10.40;;;2.80;99.90;;;;;;5143048;27;20205;-71
2021/03/25 05:09:16;;;;;;;15.77;10.27;;;2.80;99.90;;;;;;5144416;27;20221;-72
2021/03/25 05:12:03;;;;;;;14.48;9.60;;;2.80;99.90;;;;;;5143769;27;20327;-71
2021/03/25 05:14:52;;;;;;;16.60;11.18;;;2.80;99.90;;;;;;5142991;27;20263;-71
2021/03/25 05:17:48;;;;;;;16.90;11.57;;;2.70;99.90;;;;;;5146141;27;20209;-71
2021/03/25 05:20:39;;;;;;;19.40;11.75;;;2.70;99.90;;;;;;5148754;27;20200;-71
2021/03/25 05:23:33;;;;;;;17.80;11.60;;;2.70;99.90;;;;;;5143899;27;20209;-71
2021/03/25 05:26:25;;;;;;;13.30;9.77;;;2.60;99.90;;;;;;5135925;27;20722;-71
2021/03/25 05:29:13;;;;;;;18.67;10.60;;;2.70;99.90;;;;;;5142953;27;20210;-72
2021/03/25 05:31:59;;;;;;;17.23;11.73;;;2.70;99.90;;;;;;5149873;27;20217;-71
2021/03/25 05:34:46;;;;;;;21.55;11.65;;;2.80;99.90;;;;;;5136781;27;20201;-71
2021/03/25 05:37:32;;;;;;;19.73;12.18;;;2.90;99.90;;;;;;5141978;27;20202;-71
2021/03/25 05:40:22;;;;;;;17.85;12.23;;;3.10;99.90;;;;;;5142904;27;20234;-71
2021/03/25 05:43:34;;;;;;;17.05;11.38;;;3.20;99.90;;;;;;5137974;27;20664;-71
2021/03/25 05:46:30;;;;;;;14.35;10.18;;;3.30;99.90;;;;;;5103897;27;20286;-71
2021/03/25 05:49:28;;;;;;;20.85;12.25;;;3.30;99.90;;;;;;5143968;27;20271;-71
2021/03/25 05:52:29;;;;;;;24.17;13.35;;;3.40;99.90;;;;;;5142777;27;20247;-71
2021/03/25 05:55:36;;;;;;;18.85;12.82;;;3.40;99.90;;;;;;5142130;27;20236;-71
2021/03/25 05:58:33;;;;;;;19.50;13.32;;;3.30;99.90;;;;;;5141737;27;20225;-72
2021/03/25 06:01:46;;;;;;;23.95;15.10;;;3.40;99.90;;;;;;5141081;27;20226;-71
2021/03/25 06:04:34;;;;;;;25.45;13.45;;;3.40;99.90;;;;;;5142893;27;20251;-71
2021/03/25 06:07:50;;;;;;;22.58;14.43;;;3.40;99.90;;;;;;5144160;27;20217;-72
2021/03/25 06:10:49;;;;;;;19.95;13.13;;;3.40;99.90;;;;;;5148258;27;20208;-71
2021/03/25 06:13:52;;;;;;;20.10;14.18;;;3.60;99.90;;;;;;5146877;27;20205;-71
2021/03/25 06:16:57;;;;;;;21.90;13.70;;;3.70;99.90;;;;;;5146884;27;20701;-71
2021/03/25 06:20:13;;;;;;;19.80;13.05;;;3.80;99.90;;;;;;5146285;27;20216;-71
2021/03/25 06:23:19;;;;;;;24.70;15.00;;;3.90;99.90;;;;;;5129978;27;20202;-71
2021/03/25 06:26:22;;;;;;;21.75;14.95;;;4.10;99.90;;;;;;5144191;27;20209;-71
2021/03/25 06:29:15;;;;;;;27.13;11.10;;;4.00;99.90;;;;;;5142424;27;20269;-71
2021/03/25 06:32:04;;;;;;;20.85;14.48;;;4.10;99.90;;;;;;5140907;27;20302;-71
2021/03/25 06:34:53;;;;;;;23.33;13.38;;;4.10;99.90;;;;;;5145733;27;20239;-72
2021/03/25 06:37:41;;;;;;;18.35;14.57;;;4.20;99.90;;;;;;5144851;27;20198;-71
2021/03/25 06:40:33;;;;;;;19.10;12.40;;;4.40;99.90;;;;;;5144780;27;20247;-71
2021/03/25 06:43:25;;;;;;;18.13;12.00;;;4.50;99.90;;;;;;5137994;27;20205;-71
2021/03/25 06:46:18;;;;;;;26.33;14.88;;;4.60;99.90;;;;;;5147679;27;20539;-71
2021/03/25 06:49:10;;;;;;;23.60;13.15;;;4.50;99.90;;;;;;5141731;27;20586;-71
2021/03/25 06:52:02;;;;;;;17.25;12.60;;;4.60;99.90;;;;;;5139513;27;20217;-70
2021/03/25 06:54:47;;;;;;;28.70;12.23;;;4.70;99.90;;;;;;5145773;27;20233;-70
2021/03/25 06:57:40;;;;;;;27.75;13.93;;;4.80;99.90;;;;;;5140281;27;20558;-70
2021/03/25 07:00:29;;;;;;;18.47;13.00;;;4.90;99.90;;;;;;5140766;27;20197;-70
2021/03/25 07:03:18;;;;;;;29.50;15.93;;;5.10;99.90;;;;;;5142492;27;20459;-70
2021/03/25 07:06:05;;;;;;;26.43;15.77;;;5.20;99.90;;;;;;5138856;27;20480;-70
2021/03/25 07:08:52;;;;;;;25.80;16.80;;;5.20;99.90;;;;;;5144702;27;20476;-70
2021/03/25 07:11:38;;;;;;;30.97;17.20;;;5.30;99.90;;;;;;5149326;27;20470;-70
2021/03/25 07:14:34;;;;;;;20.13;14.53;;;5.40;99.90;;;;;;5144375;27;20515;-71
2021/03/25 07:17:32;;;;;;;23.07;14.70;;;5.50;99.90;;;;;;5136849;27;20469;-71
2021/03/25 07:20:22;;;;;;;29.47;16.27;;;5.70;99.90;;;;;;5138117;27;21046;-71
2021/03/25 07:23:09;;;;;;;20.93;14.97;;;5.80;99.90;;;;;;5140848;27;20437;-71
2021/03/25 07:25:54;;;;;;;25.90;15.90;;;5.90;99.90;;;;;;5135447;27;20459;-71
2021/03/25 07:28:40;;;;;;;25.80;16.10;;;5.90;99.90;;;;;;5140630;27;20401;-72
2021/03/25 07:31:30;;;;;;;27.47;16.80;;;6.10;99.90;;;;;;5135250;27;20455;-71
2021/03/25 07:34:28;;;;;;;21.00;13.90;;;6.20;99.90;;;;;;5139962;27;20441;-71
2021/03/25 07:37:16;;;;;;;28.63;14.50;;;6.40;99.90;;;;;;5137481;27;20414;-71
2021/03/25 07:40:05;;;;;;;24.27;14.90;;;6.60;99.90;;;;;;5144530;27;20545;-71
2021/03/25 07:42:51;;;;;;;26.87;15.57;;;6.80;99.90;;;;;;5143965;27;20413;-71
2021/03/25 07:45:36;;;;;;;22.60;16.00;;;6.90;99.90;;;;;;5145281;27;20451;-71
2021/03/25 07:48:25;;;;;;;26.50;13.90;;;7.00;99.90;;;;;;5142221;27;20465;-71
2021/03/25 07:51:14;;;;;;;19.97;15.10;;;7.20;99.90;;;;;;5146916;27;20974;-71
2021/03/25 07:54:17;;;;;;;26.00;16.90;;;7.30;99.90;;;;;;5142044;27;20435;-72
2021/03/25 07:57:07;;;;;;;28.33;16.40;;;7.50;99.90;;;;;;5140777;27;20479;-72
2021/03/25 07:59:53;;;;;;;24.37;15.07;;;7.60;99.90;;;;;;5143313;27;20463;-71
2021/03/25 08:02:39;;;;;;;23.67;15.43;;;7.80;99.90;;;;;;5150019;27;20467;-72
2021/03/25 08:05:28;;;;;;;28.00;15.20;;;8.00;99.90;;;;;;5147306;27;20416;-71
2021/03/25 08:08:27;;;;;;;19.67;13.03;;;8.20;99.90;;;;;;5143101;27;20414;-71
2021/03/25 08:11:15;;;;;;;13.90;8.53;;;8.60;99.90;;;;;;5145440;27;20514;-72
2021/03/25 08:14:11;;;;;;;13.80;7.53;;;8.80;99.90;;;;;;5142705;27;20418;-71
2021/03/25 08:16:59;;;;;;;14.30;7.10;;;9.20;99.90;;;;;;5147009;27;20925;-71
2021/03/25 08:19:54;;;;;;;11.23;6.90;;;9.40;99.90;;;;;;5143334;27;20496;-71
2021/03/25 08:22:54;;;;;;;11.37;6.03;;;9.90;99.90;;;;;;5147631;27;20469;-72
2021/03/25 08:25:42;;;;;;;13.10;6.30;;;10.10;98.70;;;;;;5148220;27;20981;-72
2021/03/25 08:28:53;;;;;;;9.57;6.00;;;10.40;96.60;;;;;;5145525;27;20447;-72
2021/03/25 08:31:49;;;;;;;10.80;7.20;;;10.60;95.90;;;;;;5149029;27;20995;-72
2021/03/25 08:34:49;;;;;;;10.03;5.80;;;10.70;93.20;;;;;;5148206;27;20876;-72
2021/03/25 08:37:56;;;;;;;10.33;6.17;;;10.80;93.30;;;;;;5144437;27;20519;-72
2021/03/25 08:40:46;;;;;;;11.60;6.37;;;10.90;86.00;;;;;;5149104;27;20486;-72
2021/03/25 08:43:38;;;;;;;10.80;5.27;;;11.10;87.40;;;;;;5146598;27;20417;-72
2021/03/25 08:46:28;;;;;;;10.07;6.40;;;11.20;84.20;;;;;;5152623;27;20417;-72
2021/03/25 08:49:19;;;;;;;13.27;6.67;;;11.40;82.80;;;;;;5148626;27;20918;-72
2021/03/25 08:52:07;;;;;;;13.27;6.70;;;11.60;82.30;;;;;;5143173;27;20459;-72
2021/03/25 08:55:07;;;;;;;13.37;6.57;;;11.70;80.10;;;;;;5144945;27;20434;-72
2021/03/25 08:57:58;;;;;;;10.47;6.63;;;11.90;74.10;;;;;;5143789;27;20431;-72
2021/03/25 09:00:46;;;;;;;11.73;7.30;;;12.00;75.80;;;;;;5141256;27;20459;-72
2021/03/25 09:03:37;;;;;;;13.40;6.90;;;12.20;73.00;;;;;;5149697;27;20953;-72
2021/03/25 09:06:24;;;;;;;13.10;6.90;;;12.30;73.10;;;;;;5138536;27;20442;-72
2021/03/25 09:09:37;;;;;;;17.10;8.50;;;12.40;71.20;;;;;;5145220;27;20498;-72
2021/03/25 09:12:26;;;;;;;15.33;8.67;;;12.50;70.00;;;;;;5145732;27;20600;-72
2021/03/25 09:15:13;;;;;;;16.87;8.93;;;12.60;67.40;;;;;;5148761;27;20788;-72
2021/03/25 09:18:05;;;;;;;16.70;7.50;;;12.70;66.50;;;;;;5146782;27;20492;-72
2021/03/25 09:20:54;;;;;;;16.80;8.70;;;12.70;65.10;;;;;;5145098;27;20438;-72
2021/03/25 09:24:06;;;;;;;15.97;9.10;;;12.60;64.60;;;;;;5146104;27;20978;-72
2021/03/25 09:26:55;;;;;;;31.63;9.40;;;12.70;65.10;;;;;;5149068;27;20457;-72
2021/03/25 09:30:15;;;;;;;15.37;8.77;;;12.80;67.80;;;;;;5151042;27;21974;-72
2021/03/25 09:33:43;;;;;;;18.57;9.60;;;13.00;66.50;;;;;;5144158;27;20430;-72
2021/03/25 09:36:54;;;;;;;15.20;8.47;;;13.20;65.10;;;;;;5066906;28;20440;-72
2021/03/25 09:39:39;;;;;;;18.27;9.07;;;13.30;64.40;;;;;;5146763;27;20463;-72
2021/03/25 09:42:27;;;;;;;17.23;8.60;;;13.50;63.50;;;;;;5146601;27;20522;-72
2021/03/25 09:45:35;;;;;;;20.13;8.93;;;13.50;62.40;;;;;;5143045;27;20418;-72
2021/03/25 09:48:25;;;;;;;20.90;9.70;;;13.60;62.00;;;;;;5147431;27;20484;-72
2021/03/25 09:51:19;;;;;;;18.47;8.47;;;13.70;63.00;;;;;;5148775;27;21219;-72
2021/03/25 09:54:05;;;;;;;17.60;9.07;;;13.80;61.50;;;;;;5143343;27;20434;-72
2021/03/25 09:57:17;;;;;;;16.50;9.43;;;13.90;60.70;;;;;;5144300;27;20488;-72
2021/03/25 10:00:08;;;;;;;17.70;10.37;;;14.10;60.10;;;;;;5141622;27;20466;-72
2021/03/25 10:02:55;;;;;;;19.80;9.70;;;14.10;59.20;;;;;;5146320;27;20963;-72
2021/03/25 10:05:42;;;;;;;22.30;11.90;;;14.10;59.30;;;;;;5140928;27;20454;-72
2021/03/25 10:08:51;;;;;;;15.80;9.90;;;14.20;59.60;;;;;;5145919;27;20447;-72
2021/03/25 10:11:51;;;;;;;23.23;10.20;;;14.30;59.00;;;;;;5145502;27;20521;-72
2021/03/25 10:14:54;;;;;;;23.37;12.03;;;14.40;59.00;;;;;;5141072;27;20427;-72
2021/03/25 10:17:47;;;;;;;16.23;9.80;;;14.50;58.20;;;;;;5144850;27;20485;-72
2021/03/25 10:20:50;;;;;;;20.13;10.37;;;14.40;58.50;;;;;;5149545;27;20477;-72
2021/03/25 10:23:38;;;;;;;22.47;11.37;;;14.30;57.70;;;;;;5144515;27;20417;-72
2021/03/25 10:26:32;;;;;;;19.57;10.80;;;14.30;58.80;;;;;;5139324;27;20798;-72
2021/03/25 10:29:27;;;;;;;28.10;11.63;;;14.50;59.10;;;;;;5143587;27;20466;-72
2021/03/25 10:32:18;;;;;;;18.23;10.63;;;14.70;56.90;;;;;;5140961;27;20507;-72
2021/03/25 10:35:06;;;;;;;21.53;10.43;;;14.80;56.00;;;;;;5137454;27;20446;-73
2021/03/25 10:37:54;;;;;;;22.57;10.47;;;14.90;56.90;;;;;;5135487;27;20443;-72
2021/03/25 10:40:45;;;;;;;20.07;10.67;;;15.10;57.20;;;;;;5147501;27;20479;-72
2021/03/25 10:43:33;;;;;;;22.73;11.57;;;15.00;54.00;;;;;;5138364;27;20565;-72
2021/03/25 10:46:30;;;;;;;25.43;12.30;;;15.10;56.30;;;;;;5144358;27;20988;-72
2021/03/25 10:49:18;;;;;;;22.20;11.43;;;15.20;54.20;;;;;;5138086;27;20934;-72
2021/03/25 10:52:03;;;;;;;21.47;11.77;;;15.20;53.30;;;;;;5143885;27;20867;-72
2021/03/25 10:54:48;;;;;;;20.43;11.50;;;15.30;55.60;;;;;;5143546;27;20527;-72
2021/03/25 10:57:34;;;;;;;17.70;10.90;;;15.30;53.80;;;;;;5144152;27;20422;-72
2021/03/25 11:00:24;;;;;;;19.93;11.87;;;15.40;56.40;;;;;;5145525;27;20445;-72
2021/03/25 11:03:22;;;;;;;20.70;12.10;;;15.70;54.30;;;;;;5135502;27;20505;-72
2021/03/25 11:06:08;;;;;;;21.80;13.40;;;15.80;53.60;;;;;;5146771;27;20454;-72
2021/03/25 11:09:05;;;;;;;22.37;11.90;;;15.90;51.50;;;;;;5144259;27;20822;-72
2021/03/25 11:11:52;;;;;;;19.57;11.70;;;16.00;50.70;;;;;;5142827;27;20483;-72
2021/03/25 11:14:43;;;;;;;16.93;10.77;;;16.20;50.40;;;;;;5144542;27;21097;-72
2021/03/25 11:17:32;;;;;;;21.10;11.40;;;16.40;50.40;;;;;;5143790;27;20858;-72
2021/03/25 11:20:20;;;;;;;21.63;12.57;;;16.40;49.50;;;;;;5146251;27;20612;-72
2021/03/25 11:23:06;;;;;;;24.37;12.57;;;16.40;49.50;;;;;;5140486;27;20520;-73
2021/03/25 11:25:55;;;;;;;29.30;13.47;;;16.40;49.50;;;;;;5140102;27;20465;-72
2021/03/25 11:28:40;;;;;;;18.07;12.00;;;16.50;49.50;;;;;;5141160;27;20447;-72
2021/03/25 11:31:29;;;;;;;22.47;11.57;;;16.50;49.60;;;;;;5144013;27;20449;-72
2021/03/25 11:34:25;;;;;;;22.37;12.83;;;16.70;49.80;;;;;;5140480;27;20435;-72
2021/03/25 11:37:15;;;;;;;24.50;13.37;;;16.50;48.90;;;;;;5137058;27;20516;-73
2021/03/25 11:40:05;;;;;;;23.43;14.33;;;16.60;49.60;;;;;;5141131;27;20500;-72
2021/03/25 11:43:06;;;;;;;25.97;13.20;;;16.70;48.40;;;;;;5142194;27;20850;-72
2021/03/25 11:45:52;;;;;;;23.47;13.53;;;16.70;47.70;;;;;;5139420;27;20422;-71
2021/03/25 11:48:38;;;;;;;25.43;14.00;;;16.50;47.40;;;;;;5145438;27;20979;-72
2021/03/25 11:51:25;;;;;;;20.90;12.30;;;16.40;49.70;;;;;;5135079;27;21088;-71
2021/03/25 11:54:27;;;;;;;23.80;13.00;;;16.50;51.20;;;;;;5137244;27;20804;-72
2021/03/25 11:57:26;;;;;;;22.27;13.57;;;16.70;50.90;;;;;;5143069;27;20563;-72
2021/03/25 12:00:14;;;;;;;24.23;13.40;;;16.80;48.20;;;;;;5143778;27;20587;-71
2021/03/25 12:02:59;;;;;;;23.07;14.53;;;16.70;47.70;;;;;;5140996;27;20413;-71
2021/03/25 12:05:46;;;;;;;22.10;13.67;;;16.60;48.40;;;;;;5141664;27;20413;-71
2021/03/25 12:08:35;;;;;;;22.03;14.10;;;16.50;48.80;;;;;;5142813;27;20443;-73
2021/03/25 12:11:20;;;;;;;23.60;13.80;;;16.50;48.90;;;;;;5146679;27;20466;-73
2021/03/25 12:14:06;;;;;;;23.57;14.73;;;16.60;49.70;;;;;;5143477;27;20488;-73
2021/03/25 12:16:57;;;;;;;23.27;14.10;;;16.70;48.40;;;;;;5141639;27;20414;-72
2021/03/25 12:19:42;;;;;;;28.00;14.97;;;16.70;47.60;;;;;;5143829;27;20516;-72
2021/03/25 12:22:31;;;;;;;24.07;12.60;;;16.80;49.90;;;;;;5142887;27;20496;-73
2021/03/25 12:25:18;;;;;;;23.03;14.10;;;16.80;45.80;;;;;;5144623;27;20528;-72
2021/03/25 12:28:03;;;;;;;31.07;14.00;;;16.70;46.50;;;;;;5139735;27;20435;-73
2021/03/25 12:30:49;;;;;;;22.50;14.20;;;16.80;48.00;;;;;;5139412;27;20519;-73
2021/03/25 12:33:36;;;;;;;25.07;13.47;;;16.90;47.20;;;;;;5146920;27;20448;-72
2021/03/25 12:36:22;;;;;;;20.70;12.50;;;17.00;46.90;;;;;;5146674;27;20401;-72
2021/03/25 12:39:09;;;;;;;26.50;16.50;;;17.10;48.90;;;;;;5141153;27;21032;-71
2021/03/25 12:41:57;;;;;;;30.17;17.13;;;17.20;47.80;;;;;;5142184;27;20496;-72
2021/03/25 12:44:43;;;;;;;23.80;14.20;;;17.10;48.20;;;;;;5142675;27;20446;-72
2021/03/25 12:47:27;;;;;;;53.43;28.60;;;17.20;48.00;;;;;;5147244;27;20413;-72
2021/03/25 12:50:14;;;;;;;98.13;28.23;;;17.30;48.60;;;;;;5140268;27;20969;-71
2021/03/25 12:53:00;;;;;;;26.67;15.17;;;17.60;49.90;;;;;;5147844;27;20416;-72
2021/03/25 12:55:45;;;;;;;31.23;16.90;;;17.80;46.40;;;;;;5145071;27;21002;-72
2021/03/25 12:58:36;;;;;;;29.43;16.43;;;17.90;45.60;;;;;;5143978;27;20435;-72
2021/03/25 13:01:24;;;;;;;26.17;15.17;;;18.10;46.10;;;;;;5147474;27;20454;-72
2021/03/25 13:04:10;;;;;;;27.87;14.53;;;18.20;46.10;;;;;;5141094;27;20439;-72
2021/03/25 13:06:55;;;;;;;22.57;14.60;;;18.40;44.80;;;;;;5141094;27;20952;-72
2021/03/25 13:09:40;;;;;;;35.63;15.53;;;18.40;43.20;;;;;;5143670;27;20463;-72
2021/03/25 13:12:27;;;;;;;32.87;15.23;;;18.40;43.50;;;;;;5146287;27;21001;-72
2021/03/25 13:15:14;;;;;;;31.67;16.07;;;18.30;43.70;;;;;;5144544;27;20492;-71
2021/03/25 13:18:00;;;;;;;28.77;15.43;;;18.30;43.80;;;;;;5144212;27;20428;-72
2021/03/25 13:20:46;;;;;;;29.90;15.80;;;18.10;44.30;;;;;;5144896;27;20482;-72
2021/03/25 13:23:31;;;;;;;25.83;14.80;;;18.20;43.70;;;;;;5148600;27;20410;-73
2021/03/25 13:26:17;;;;;;;27.80;14.70;;;18.20;44.10;;;;;;5151062;27;20885;-72
2021/03/25 13:29:02;;;;;;;23.67;15.40;;;18.20;42.70;;;;;;5145915;27;20796;-71
2021/03/25 13:31:48;;;;;;;26.07;13.70;;;18.30;43.60;;;;;;5141098;27;20471;-74
2021/03/25 13:34:33;;;;;;;29.10;15.23;;;18.50;42.60;;;;;;5139747;27;20426;-73
2021/03/25 13:37:19;;;;;;;26.80;15.33;;;18.50;41.80;;;;;;5145640;27;20547;-72
2021/03/25 13:40:06;;;;;;;26.00;16.00;;;18.60;41.50;;;;;;5143087;27;20940;-72
2021/03/25 13:42:52;;;;;;;25.23;14.90;;;18.70;41.50;;;;;;5142835;27;21257;-73
2021/03/25 13:45:37;;;;;;;22.57;14.60;;;18.90;42.00;;;;;;5141739;27;20409;-73
2021/03/25 13:48:22;;;;;;;24.53;14.63;;;19.00;39.00;;;;;;5145395;27;20531;-72
2021/03/25 13:51:08;;;;;;;26.43;15.20;;;18.90;39.20;;;;;;5150497;27;21014;-73
2021/03/25 13:53:53;;;;;;;27.97;15.10;;;18.70;40.50;;;;;;5148674;27;20414;-74
2021/03/25 13:56:39;;;;;;;27.50;17.50;;;18.70;40.10;;;;;;5143307;27;20413;-72
2021/03/25 13:59:24;;;;;;;30.70;14.70;;;18.80;39.50;;;;;;5145032;27;20567;-73
2021/03/25 14:02:09;;;;;;;22.17;14.10;;;18.80;39.50;;;;;;5144494;27;20483;-73
2021/03/25 14:04:56;;;;;;;26.80;15.30;;;18.80;40.80;;;;;;5142676;27;20438;-73
2021/03/25 14:07:41;;;;;;;28.70;15.97;;;18.60;39.70;;;;;;5137546;27;20425;-72
2021/03/25 14:10:28;;;;;;;27.73;16.37;;;18.60;41.70;;;;;;5146551;27;20455;-73
2021/03/25 14:13:15;;;;;;;25.90;17.00;;;18.70;40.10;;;;;;5147403;27;20495;-72
2021/03/25 14:16:00;;;;;;;29.37;15.67;;;18.90;40.10;;;;;;5141607;27;20496;-73
2021/03/25 14:18:48;;;;;;;29.77;16.53;;;19.00;41.00;;;;;;5145901;27;20421;-73
2021/03/25 14:21:34;;;;;;;24.87;13.70;;;19.00;41.20;;;;;;5141005;27;20501;-73
2021/03/25 14:24:19;;;;;;;25.20;13.63;;;19.10;39.30;;;;;;5142821;27;20448;-73
2021/03/25 14:27:05;;;;;;;22.43;13.13;;;19.20;38.70;;;;;;5144482;27;20520;-74
2021/03/25 14:29:50;;;;;;;22.80;11.90;;;19.20;37.00;;;;;;5134900;27;20551;-74
2021/03/25 14:32:35;;;;;;;19.80;11.20;;;19.20;35.30;;;;;;5145284;27;20821;-74